createdAt,value
2023-03-22T05:12:50.795Z,88178.00
2023-03-22T05:13:50.752Z,88180.00
2023-03-22T05:14:50.798Z,88180.00
2023-03-22T05:15:50.735Z,88178.00
2023-03-22T05:16:50.688Z,88180.00
2023-03-22T05:17:50.650Z,88180.00
2023-03-22T05:18:50.625Z,88182.00
2023-03-22T05:19:50.597Z,88180.00
2023-03-22T05:20:50.570Z,88182.00
2023-03-22T05:21:50.545Z,88186.00
2023-03-22T05:22:50.528Z,88192.00
2023-03-22T05:23:51.597Z,88192.00
2023-03-22T05:24:50.470Z,88192.00
2023-03-22T05:25:50.434Z,88194.00
2023-03-22T05:26:50.405Z,88196.00
2023-03-22T05:27:50.375Z,88196.00
2023-03-22T05:28:50.359Z,88196.00
2023-03-22T05:29:50.339Z,88196.00
2023-03-22T05:30:50.316Z,88194.00
2023-03-22T05:31:50.359Z,88196.00
2023-03-22T05:32:50.250Z,88196.00
2023-03-22T05:33:50.288Z,88200.00
2023-03-22T05:34:50.300Z,88198.00
2023-03-22T05:35:50.217Z,88198.00
2023-03-22T05:36:50.182Z,88200.00
2023-03-22T05:37:50.160Z,88200.00
2023-03-22T05:38:50.192Z,88200.00
2023-03-22T05:39:50.129Z,88198.00
2023-03-22T05:40:50.105Z,88200.00
2023-03-22T05:41:50.097Z,88198.00
2023-03-22T05:42:50.050Z,88202.00
2023-03-22T05:43:50.039Z,88204.00
2023-03-22T05:44:49.994Z,88206.00
2023-03-22T05:45:49.984Z,88213.00
2023-03-22T05:46:50.012Z,88206.00
2023-03-22T05:47:49.952Z,88204.00
2023-03-22T05:48:49.913Z,88202.00
2023-03-22T05:49:49.887Z,88202.00
2023-03-22T05:50:49.845Z,88204.00
2023-03-22T05:51:49.838Z,88200.00
2023-03-22T05:52:49.806Z,88202.00
2023-03-22T05:53:49.780Z,88202.00
2023-03-22T05:54:49.773Z,88202.00
2023-03-22T05:55:49.748Z,88206.00
2023-03-22T05:56:49.742Z,88204.00
2023-03-22T05:57:49.719Z,88204.00
2023-03-22T05:58:49.718Z,88202.00
2023-03-22T05:59:49.677Z,88200.00
2023-03-22T06:00:49.660Z,88204.00
2023-03-22T06:01:49.677Z,88206.00
2023-03-22T06:02:49.731Z,88204.00
2023-03-22T06:03:49.630Z,88202.00
2023-03-22T06:04:49.627Z,88204.00
2023-03-22T06:05:49.597Z,88204.00
2023-03-22T06:06:49.582Z,88206.00
2023-03-22T06:07:49.553Z,88206.00
2023-03-22T06:08:49.530Z,88204.00
2023-03-22T06:09:49.548Z,88204.00
2023-03-22T06:10:49.500Z,88204.00
2023-03-22T06:11:49.494Z,88213.00
2023-03-22T06:12:49.534Z,88206.00
2023-03-22T06:13:49.454Z,88213.00
2023-03-22T06:14:49.445Z,88204.00
2023-03-22T06:15:49.446Z,88202.00
2023-03-22T06:16:49.488Z,88213.00
2023-03-22T06:17:49.420Z,88213.00
2023-03-22T06:18:49.367Z,88206.00
2023-03-22T06:19:50.904Z,88204.00
2023-03-22T06:20:49.318Z,88204.00
2023-03-22T06:21:49.300Z,88200.00
2023-03-22T06:22:49.282Z,88206.00
2023-03-22T06:23:49.245Z,88204.00
2023-03-22T06:24:49.236Z,88202.00
2023-03-22T06:25:49.236Z,88202.00
2023-03-22T06:26:49.184Z,88196.00
2023-03-22T06:27:49.180Z,88204.00
2023-03-22T06:28:49.192Z,88206.00
2023-03-22T06:29:49.127Z,88204.00
2023-03-22T06:30:49.146Z,88204.00
2023-03-22T06:31:49.119Z,88196.00
2023-03-22T06:32:49.070Z,88202.00
2023-03-22T06:33:49.052Z,88200.00
2023-03-22T06:34:49.025Z,88200.00
2023-03-22T09:42:42.829Z,88092.00
2023-03-22T09:43:42.882Z,88090.00
2023-03-22T09:44:42.736Z,88092.00
2023-03-22T09:45:43.021Z,88088.00
2023-03-22T09:46:42.708Z,88086.00
2023-03-22T09:47:45.006Z,88088.00
2023-03-22T09:49:52.904Z,88090.00
2023-03-22T09:51:42.491Z,88080.00
2023-03-22T09:52:42.456Z,88072.00
2023-03-22T09:54:42.323Z,88072.00
2023-03-22T09:55:42.382Z,88068.00
2023-03-22T09:56:42.283Z,88072.00
2023-03-22T09:58:42.225Z,88074.00
2023-03-22T09:59:42.176Z,88068.00
2023-03-22T10:00:42.315Z,88068.00
2023-03-22T10:01:42.290Z,88070.00
2023-03-22T10:02:42.110Z,88063.00
2023-03-22T10:03:42.052Z,88066.00
2023-03-22T10:04:42.036Z,88065.00
2023-03-22T10:05:42.262Z,88066.00
2023-03-22T10:06:41.960Z,88066.00
2023-03-22T10:07:41.930Z,88065.00
2023-03-22T10:08:41.882Z,88063.00
2023-03-22T10:09:41.847Z,88063.00
2023-03-22T10:11:43.756Z,88061.00
2023-03-22T10:12:41.728Z,88061.00
2023-03-22T10:13:41.686Z,88063.00
2023-03-22T10:14:41.657Z,88059.00
2023-03-22T10:15:42.260Z,88059.00
2023-03-22T10:16:41.589Z,88065.00
2023-03-22T10:17:41.530Z,88057.00
2023-03-22T10:18:41.503Z,88061.00
2023-03-22T10:19:41.599Z,88057.00
2023-03-22T10:20:41.447Z,88051.00
2023-03-22T10:21:41.382Z,88055.00
2023-03-22T10:22:41.383Z,88049.00
2023-03-22T10:23:43.880Z,88053.00
2023-03-22T10:25:41.803Z,88055.00
2023-03-22T10:26:41.405Z,88051.00
2023-03-22T10:27:41.482Z,88053.00
2023-03-22T10:28:41.319Z,88053.00
2023-03-22T10:29:41.267Z,88055.00
2023-03-22T10:30:41.575Z,88051.00
2023-03-22T10:31:41.209Z,88059.00
2023-03-22T10:32:56.426Z,88053.00
2023-03-22T10:34:41.109Z,88057.00
2023-03-22T10:35:41.354Z,88049.00
2023-03-22T10:36:41.069Z,88051.00
2023-03-22T10:37:41.036Z,88051.00
2023-03-22T10:38:41.024Z,88053.00
2023-03-22T10:39:40.935Z,88051.00
2023-03-22T10:40:40.901Z,88053.00
2023-03-22T10:41:40.849Z,88047.00
2023-03-22T10:42:40.806Z,88049.00
2023-03-22T10:43:40.772Z,88053.00
2023-03-22T10:44:40.770Z,88047.00
2023-03-22T10:45:40.922Z,88049.00
2023-03-22T10:46:40.720Z,88047.00
2023-03-22T10:47:40.771Z,88051.00
2023-03-22T10:48:40.759Z,88061.00
2023-03-22T10:49:40.566Z,88047.00
2023-03-22T10:50:40.516Z,88053.00
2023-03-22T10:51:40.480Z,88051.00
2023-03-22T10:52:40.464Z,88051.00
2023-03-22T10:53:40.421Z,88053.00
2023-03-22T10:54:40.365Z,88059.00
2023-03-22T10:55:40.564Z,88055.00
2023-03-22T10:56:40.322Z,88047.00
2023-03-22T10:57:40.277Z,88045.00
2023-03-22T10:58:40.229Z,88049.00
2023-03-22T10:59:40.195Z,88047.00
2023-03-22T11:00:42.328Z,88045.00
2023-03-22T11:01:40.270Z,88053.00
2023-03-22T11:02:40.154Z,88051.00
2023-03-22T11:03:40.017Z,88041.00
2023-03-22T11:04:40.059Z,88045.00
2023-03-22T11:05:40.191Z,88045.00
2023-03-22T11:06:39.920Z,88053.00
2023-03-22T11:07:39.934Z,88045.00
2023-03-22T11:08:39.845Z,88051.00
2023-03-22T11:09:39.791Z,88051.00
2023-03-22T11:10:39.842Z,88043.00
2023-03-22T11:11:39.727Z,88041.00
2023-03-22T11:12:40.204Z,88039.00
2023-03-22T11:13:39.627Z,88053.00
2023-03-22T11:14:39.594Z,88045.00
2023-03-22T11:15:39.705Z,88045.00
2023-03-22T11:16:39.607Z,88049.00
2023-03-22T11:17:39.464Z,88043.00
2023-03-22T11:18:39.480Z,88047.00
2023-03-22T11:19:39.402Z,88049.00
2023-03-22T11:20:39.735Z,88074.00
2023-03-22T11:21:39.322Z,88047.00
2023-03-22T11:22:39.298Z,88047.00
2023-03-22T11:23:39.329Z,88045.00
2023-03-22T11:24:39.198Z,88045.00
2023-03-22T11:25:39.150Z,88043.00
2023-03-22T11:26:41.534Z,88055.00
2023-03-22T11:27:39.068Z,88047.00
2023-03-22T11:28:39.035Z,88039.00
2023-03-22T11:29:39.047Z,88043.00
2023-03-22T14:20:32.367Z,87893.00
2023-03-22T14:46:22.773Z,87873.00
2023-03-22T14:47:22.773Z,87871.00
2023-03-22T14:48:22.737Z,87873.00
2023-03-22T14:49:22.707Z,87871.00
2023-03-22T14:50:22.679Z,87877.00
2023-03-22T14:54:22.638Z,87869.00
2023-03-22T14:55:22.542Z,87871.00
2023-03-22T14:56:22.516Z,87871.00
2023-03-22T14:57:28.402Z,87875.00
2023-03-22T14:58:23.458Z,87873.00
2023-03-22T14:59:22.432Z,87875.00
2023-03-22T15:04:22.308Z,87869.00
2023-03-22T15:05:22.294Z,87869.00
2023-03-22T15:07:22.223Z,87869.00
2023-03-22T15:08:22.216Z,87875.00
2023-03-22T15:09:22.161Z,87871.00
2023-03-22T15:10:22.158Z,87873.00
2023-03-22T15:14:22.031Z,87875.00
2023-03-22T15:15:22.031Z,87877.00
2023-03-22T15:17:21.940Z,87877.00
2023-03-22T15:18:21.924Z,87877.00
2023-03-22T15:19:21.886Z,87873.00
2023-03-22T15:20:21.889Z,87875.00
2023-03-22T15:21:21.854Z,87873.00
2023-03-22T15:25:21.724Z,87869.00
2023-03-22T15:26:21.725Z,87867.00
2023-03-22T15:29:21.656Z,87869.00
2023-03-22T15:30:21.622Z,87871.00
2023-03-22T15:31:21.611Z,87871.00
2023-03-22T15:32:21.581Z,87871.00
2023-03-22T15:35:21.497Z,87875.00
2023-03-22T15:36:21.522Z,87873.00
2023-03-22T15:40:21.371Z,87877.00
2023-03-22T15:41:21.366Z,87877.00
2023-03-22T15:43:21.303Z,87879.00
2023-03-22T15:44:21.278Z,87875.00
2023-03-22T15:46:21.288Z,87879.00
2023-03-22T15:49:21.192Z,87885.00
2023-03-22T15:50:21.144Z,87887.00
2023-03-22T15:54:21.048Z,87887.00
2023-03-22T15:55:21.014Z,87887.00
2023-03-22T15:56:23.027Z,87887.00
2023-03-22T15:58:22.370Z,87889.00
2023-03-22T15:59:21.032Z,87883.00
2023-03-22T16:00:20.993Z,87885.00
2023-03-22T16:01:20.992Z,87887.00
2023-03-22T16:03:20.937Z,87887.00
2023-03-22T16:06:20.858Z,87885.00
2023-03-22T16:07:20.808Z,87885.00
2023-03-22T16:10:20.745Z,87887.00
2023-03-22T16:11:20.735Z,87885.00
2023-03-22T16:12:20.698Z,87885.00
2023-03-22T16:13:20.672Z,87883.00
2023-03-22T16:14:20.677Z,87883.00
2023-03-22T16:17:20.609Z,87885.00
2023-03-22T16:18:20.604Z,87883.00
2023-03-22T16:20:20.629Z,87889.00
2023-03-22T16:21:20.546Z,87885.00
2023-03-22T16:22:20.547Z,87889.00
2023-03-22T16:24:20.495Z,87891.00
2023-03-22T16:29:20.391Z,87896.00
2023-03-22T16:30:20.373Z,87896.00
2023-03-22T16:32:20.325Z,87902.00
2023-03-22T16:33:20.353Z,87904.00
2023-03-22T16:34:20.288Z,87910.00
2023-03-22T16:35:20.255Z,87914.00
2023-03-22T16:36:20.344Z,87920.00
2023-03-22T16:38:20.210Z,87914.00
2023-03-22T16:39:20.181Z,87918.00
2023-03-22T16:42:20.114Z,87920.00
2023-03-22T16:44:20.072Z,87916.00
2023-03-22T16:48:19.984Z,87912.00
2023-03-22T16:49:19.978Z,87914.00
2023-03-22T16:50:19.963Z,87914.00
2023-03-22T16:51:19.950Z,87916.00
2023-03-22T16:52:19.920Z,87914.00
2023-03-22T16:56:19.850Z,87922.00
2023-03-22T16:58:19.798Z,87924.00
2023-03-22T17:00:19.781Z,87922.00
2023-03-22T17:01:19.799Z,87918.00
2023-03-22T17:02:19.768Z,87920.00
2023-03-22T17:03:19.710Z,87924.00
2023-03-22T17:07:19.639Z,87926.00
2023-03-22T17:09:19.597Z,87928.00
2023-03-22T17:10:19.604Z,87928.00
2023-03-22T17:11:19.606Z,87928.00
2023-03-22T17:12:19.565Z,87932.00
2023-03-22T17:13:19.512Z,87934.00
2023-03-22T17:14:19.523Z,87936.00
2023-03-22T17:19:19.386Z,87940.00
2023-03-22T17:23:19.289Z,87940.00
2023-03-22T17:24:19.263Z,87944.00
2023-03-22T17:25:19.243Z,87942.00
2023-03-22T17:26:19.239Z,87946.00
2023-03-22T17:28:19.180Z,87944.00
2023-03-22T17:29:19.149Z,87944.00
2023-03-22T17:32:33.678Z,87946.00
2023-03-22T17:33:19.202Z,87948.00
2023-03-22T17:34:19.085Z,87944.00
2023-03-22T17:36:19.050Z,87944.00
2023-03-22T17:38:23.208Z,87946.00
2023-03-22T17:39:36.059Z,87950.00
2023-03-22T17:41:18.998Z,87950.00
2023-03-22T17:42:18.969Z,87956.00
2023-03-22T17:43:18.941Z,87958.00
2023-03-22T17:45:18.923Z,87956.00
2023-03-22T17:48:18.899Z,87960.00
2023-03-22T17:49:18.842Z,87956.00
2023-03-22T17:50:18.818Z,87958.00
2023-03-22T17:51:18.793Z,87960.00
2023-03-22T17:53:43.351Z,87964.00
2023-03-22T17:59:18.663Z,87972.00
2023-03-22T18:00:18.651Z,87972.00
2023-03-22T18:01:18.667Z,87974.00
2023-03-22T18:02:25.629Z,87978.00
2023-03-22T18:03:19.748Z,87980.00
2023-03-22T18:07:18.543Z,87990.00
2023-03-22T18:10:18.476Z,87996.00
2023-03-22T18:11:18.484Z,87998.00
2023-03-22T18:14:27.005Z,88002.00
2023-03-22T18:15:19.419Z,88002.00
2023-03-22T18:16:18.443Z,88006.00
2023-03-22T18:17:18.508Z,88004.00
2023-03-22T18:18:18.395Z,88002.00
2023-03-22T18:19:18.383Z,88006.00
2023-03-22T18:20:29.452Z,88004.00
2023-03-22T18:21:19.362Z,88002.00
2023-03-22T18:25:18.310Z,88010.00
2023-03-22T18:26:28.466Z,88010.00
2023-03-22T18:27:19.279Z,88013.00
2023-03-22T18:28:18.260Z,88013.00
2023-03-22T18:29:18.248Z,88013.00
2023-03-22T18:30:18.231Z,88015.00
2023-03-22T18:31:18.231Z,88015.00
2023-03-22T18:32:20.949Z,88017.00
2023-03-22T18:34:18.183Z,88019.00
2023-03-22T18:36:18.200Z,88027.00
2023-03-22T18:38:35.930Z,88025.00
2023-03-22T18:41:37.587Z,88029.00
2023-03-22T18:42:21.857Z,88033.00
2023-03-22T18:43:19.083Z,88035.00
2023-03-22T18:44:18.052Z,88033.00
2023-03-22T18:45:18.576Z,88035.00
2023-03-22T18:46:19.335Z,88033.00
2023-03-22T18:50:18.018Z,88043.00
2023-03-22T18:53:19.006Z,88049.00
2023-03-22T18:54:17.963Z,88051.00
2023-03-22T18:55:29.396Z,88051.00
2023-03-22T18:59:17.905Z,88045.00
2023-03-22T19:02:24.904Z,88053.00
2023-03-22T19:03:18.856Z,88051.00
2023-03-22T19:04:17.844Z,88055.00
2023-03-22T19:05:17.822Z,88055.00
2023-03-22T19:07:26.809Z,88053.00
2023-03-22T19:08:27.129Z,88055.00
2023-03-22T19:09:18.780Z,88055.00
2023-03-22T19:10:17.749Z,88053.00
2023-03-22T19:12:17.732Z,88053.00
2023-03-22T19:16:17.665Z,88059.00
2023-03-22T19:18:17.699Z,88057.00
2023-03-22T19:19:17.665Z,88061.00
2023-03-22T19:21:26.630Z,88061.00
2023-03-22T19:22:18.618Z,88059.00
2023-03-22T19:23:17.615Z,88063.00
2023-03-22T19:29:17.544Z,88065.00
2023-03-22T19:31:17.507Z,88063.00
2023-03-22T19:33:34.737Z,88059.00
2023-03-22T19:34:18.485Z,88061.00
2023-03-22T19:35:17.477Z,88065.00
2023-03-22T19:39:17.493Z,88065.00
2023-03-22T19:42:17.388Z,88063.00
2023-03-22T19:43:17.367Z,88061.00
2023-03-22T19:44:17.370Z,88063.00
2023-03-22T19:46:17.335Z,88061.00
2023-03-22T19:52:17.358Z,88061.00
2023-03-22T19:53:57.496Z,88063.00
2023-03-22T19:54:30.427Z,88059.00
2023-03-22T19:56:17.214Z,88063.00
2023-03-22T19:57:17.193Z,88061.00
2023-03-22T19:59:18.059Z,88068.00
2023-03-22T20:02:17.154Z,88065.00
2023-03-22T20:04:17.162Z,88074.00
2023-03-22T20:08:17.117Z,88074.00
2023-03-22T20:09:17.095Z,88076.00
2023-03-22T20:11:25.953Z,88078.00
2023-03-22T20:12:18.151Z,88078.00
2023-03-22T20:13:17.054Z,88080.00
2023-03-22T20:19:16.974Z,88080.00
2023-03-22T20:21:16.944Z,88078.00
2023-03-22T20:22:16.930Z,88080.00
2023-03-22T20:23:16.922Z,88080.00
2023-03-22T20:25:16.911Z,88080.00
2023-03-22T20:26:16.889Z,88080.00
2023-03-22T20:29:16.855Z,88082.00
2023-03-22T20:30:16.851Z,88082.00
2023-03-22T20:31:16.845Z,88078.00
2023-03-22T20:33:16.826Z,88084.00
2023-03-22T20:34:16.812Z,88084.00
2023-03-22T20:35:16.821Z,88078.00
2023-03-22T20:39:16.769Z,88086.00
2023-03-22T20:41:16.756Z,88090.00
2023-03-22T20:44:16.721Z,88088.00
2023-03-22T20:45:16.736Z,88090.00
2023-03-22T20:46:16.705Z,88094.00
2023-03-22T20:47:16.696Z,88086.00
2023-03-22T20:48:16.683Z,88090.00
2023-03-22T20:50:16.663Z,88090.00
2023-03-22T20:53:16.630Z,88090.00
2023-03-22T20:54:16.608Z,88090.00
2023-03-22T20:55:16.603Z,88094.00
2023-03-22T20:58:16.561Z,88094.00
2023-03-22T21:00:16.537Z,88092.00
2023-03-22T21:02:16.515Z,88092.00
2023-03-22T21:03:16.499Z,88096.00
2023-03-22T21:04:16.490Z,88098.00
2023-03-22T21:05:16.483Z,88094.00
2023-03-22T21:07:16.444Z,88100.00
2023-03-22T21:12:16.382Z,88102.00
2023-03-22T21:13:16.370Z,88098.00
2023-03-22T21:14:16.390Z,88098.00
2023-03-22T21:15:16.357Z,88102.00
2023-03-22T21:16:16.354Z,88100.00
2023-03-22T21:17:16.335Z,88100.00
2023-03-22T21:21:16.281Z,88108.00
2023-03-22T21:22:16.265Z,88104.00
2023-03-22T21:23:16.261Z,88110.00
2023-03-22T21:24:16.243Z,88112.00
2023-03-22T21:25:16.247Z,88110.00
2023-03-22T21:26:16.247Z,88110.00
2023-03-22T21:29:16.214Z,88114.00
2023-03-22T21:30:16.213Z,88112.00
2023-03-22T21:32:16.178Z,88114.00
2023-03-22T21:34:16.173Z,88114.00
2023-03-22T21:35:16.168Z,88118.00
2023-03-22T21:36:16.199Z,88110.00
2023-03-22T21:37:16.164Z,88116.00
2023-03-22T21:40:16.145Z,88112.00
2023-03-22T21:41:16.153Z,88112.00
2023-03-22T21:42:16.139Z,88114.00
2023-03-22T21:44:16.142Z,88112.00
2023-03-22T21:45:16.135Z,88108.00
2023-03-22T21:46:16.137Z,88108.00
2023-03-22T21:47:16.146Z,88112.00
2023-03-22T21:51:16.140Z,88110.00
2023-03-22T21:52:16.154Z,88108.00
2023-03-22T21:54:16.143Z,88112.00
2023-03-22T21:55:16.139Z,88114.00
2023-03-22T21:56:16.158Z,88110.00
2023-03-22T21:57:16.138Z,88116.00
2023-03-22T21:58:16.150Z,88112.00
2023-03-22T22:00:16.142Z,88116.00
2023-03-22T22:01:16.143Z,88118.00
2023-03-22T22:03:16.122Z,88118.00
2023-03-22T22:05:16.112Z,88116.00
2023-03-22T22:06:16.118Z,88120.00
2023-03-22T22:08:16.090Z,88120.00
2023-03-22T22:09:16.095Z,88121.00
2023-03-22T22:13:16.068Z,88116.00
2023-03-22T22:14:16.091Z,88120.00
2023-03-22T22:15:16.068Z,88120.00
2023-03-22T22:16:16.065Z,88120.00
2023-03-22T22:17:16.068Z,88121.00
2023-03-22T22:18:16.068Z,88123.00
2023-03-22T22:19:16.055Z,88120.00
2023-03-22T22:20:16.053Z,88118.00
2023-03-22T22:26:16.010Z,88114.00
2023-03-22T22:27:16.032Z,88114.00
2023-03-22T22:29:16.015Z,88114.00
2023-03-22T22:30:16.017Z,88116.00
2023-03-22T22:31:16.017Z,88118.00
2023-03-22T22:35:16.002Z,88114.00
2023-03-22T22:36:16.009Z,88116.00
2023-03-22T22:37:16.000Z,88116.00
2023-03-22T22:38:15.994Z,88110.00
2023-03-22T22:39:15.994Z,88114.00
2023-03-22T22:41:15.988Z,88108.00
2023-03-22T22:42:16.013Z,88108.00
2023-03-22T22:45:16.017Z,88110.00
2023-03-22T22:46:16.023Z,88112.00
2023-03-22T22:48:15.984Z,88112.00
2023-03-22T22:49:15.988Z,88114.00
2023-03-22T22:50:15.982Z,88110.00
2023-03-22T22:54:15.967Z,88110.00
2023-03-22T22:55:15.970Z,88106.00
2023-03-22T22:56:15.984Z,88108.00
2023-03-22T22:57:15.984Z,88106.00
2023-03-22T22:58:15.998Z,88106.00
2023-03-22T23:01:15.972Z,88104.00
2023-03-22T23:02:15.969Z,88100.00
2023-03-22T23:03:15.969Z,88100.00
2023-03-22T23:06:15.947Z,88096.00
2023-03-22T23:07:15.933Z,88096.00
2023-03-22T23:08:15.942Z,88098.00
2023-03-22T23:10:15.911Z,88096.00
2023-03-22T23:12:15.905Z,88090.00
2023-03-22T23:13:15.890Z,88092.00
2023-03-22T23:14:15.890Z,88096.00
2023-03-22T23:15:26.724Z,88100.00
2023-03-22T23:16:16.884Z,88102.00
2023-03-22T23:19:15.892Z,88098.00
2023-03-22T23:21:15.877Z,88098.00
2023-03-22T23:22:15.857Z,88096.00
2023-03-22T23:23:15.852Z,88098.00
2023-03-22T23:24:15.851Z,88098.00
2023-03-22T23:26:15.843Z,88098.00
2023-03-22T23:31:15.841Z,88094.00
2023-03-22T23:32:15.818Z,88092.00
2023-03-22T23:33:15.811Z,88092.00
2023-03-22T23:34:15.811Z,88096.00
2023-03-22T23:36:15.799Z,88088.00
2023-03-22T23:37:15.780Z,88092.00
2023-03-22T23:38:15.784Z,88086.00
2023-03-22T23:40:15.755Z,88092.00
2023-03-22T23:43:15.722Z,88088.00
2023-03-22T23:44:15.735Z,88090.00
2023-03-22T23:46:15.713Z,88088.00
2023-03-22T23:47:15.702Z,88084.00
2023-03-22T23:48:15.719Z,88084.00
2023-03-22T23:50:15.702Z,88084.00
2023-03-22T23:55:15.722Z,88088.00
2023-03-22T23:56:15.711Z,88088.00
2023-03-22T23:57:15.723Z,88090.00
2023-03-22T23:58:15.698Z,88092.00
2023-03-22T23:59:15.711Z,88090.00
